createdAt,value
2022-10-02T00:01:27.417Z,92.80
2022-10-02T00:03:56.335Z,92.80
2022-10-02T00:06:33.653Z,92.70
2022-10-02T00:09:04.407Z,92.80
2022-10-02T00:11:45.666Z,92.80
2022-10-02T00:14:18.262Z,92.80
2022-10-02T00:16:49.896Z,92.90
2022-10-02T00:19:20.377Z,92.90
2022-10-02T00:22:37.834Z,92.90
2022-10-02T00:25:15.160Z,93.00
2022-10-02T00:28:11.604Z,93.10
2022-10-02T00:31:02.888Z,93.10
2022-10-02T00:33:38.412Z,93.10
2022-10-02T00:36:22.311Z,93.10
2022-10-02T00:39:03.535Z,93.30
2022-10-02T00:41:49.140Z,93.40
2022-10-02T00:44:43.185Z,93.50
2022-10-02T00:47:19.456Z,93.40
2022-10-02T00:50:02.879Z,93.30
2022-10-02T00:52:51.364Z,93.20
2022-10-02T00:55:51.290Z,93.10
2022-10-02T00:58:44.908Z,93.00
2022-10-02T01:01:20.983Z,93.00
2022-10-02T01:03:54.126Z,93.00
2022-10-02T01:06:26.598Z,93.00
2022-10-02T01:08:54.915Z,93.00
2022-10-02T01:11:27.074Z,93.10
2022-10-02T01:13:55.579Z,93.10
2022-10-02T01:16:23.972Z,93.10
2022-10-02T01:18:52.359Z,93.10
2022-10-02T01:21:30.637Z,93.10
2022-10-02T01:24:06.657Z,93.10
2022-10-02T01:26:36.610Z,93.10
2022-10-02T01:29:05.813Z,93.00
2022-10-02T01:31:36.549Z,93.10
2022-10-02T01:34:05.479Z,93.00
2022-10-02T01:36:34.903Z,93.00
2022-10-02T01:39:04.044Z,93.00
2022-10-02T01:41:32.572Z,93.00
2022-10-02T01:44:04.034Z,93.00
2022-10-02T01:46:37.234Z,92.90
2022-10-02T01:49:41.171Z,92.90
2022-10-02T01:52:21.316Z,92.90
2022-10-02T01:55:09.245Z,92.90
2022-10-02T01:57:55.743Z,92.80
2022-10-02T02:00:27.289Z,92.90
2022-10-02T02:03:06.076Z,92.90
2022-10-02T02:05:47.226Z,92.90
2022-10-02T02:08:22.022Z,92.90
2022-10-02T02:11:02.447Z,92.90
2022-10-02T02:13:35.642Z,92.90
2022-10-02T02:16:10.485Z,92.90
2022-10-02T02:18:44.247Z,92.90
2022-10-02T02:21:17.561Z,93.00
2022-10-02T02:23:48.231Z,93.00
2022-10-02T02:26:19.652Z,93.00
2022-10-02T02:28:52.414Z,93.00
2022-10-02T02:31:26.306Z,93.00
2022-10-02T02:33:59.546Z,93.00
2022-10-02T02:36:34.626Z,93.20
2022-10-02T02:39:09.380Z,93.20
2022-10-02T02:41:43.988Z,93.20
2022-10-02T02:44:19.174Z,93.10
2022-10-02T02:47:06.685Z,93.20
2022-10-02T02:49:47.972Z,93.20
2022-10-02T02:52:18.464Z,93.30
2022-10-02T02:54:53.911Z,93.50
2022-10-02T02:57:30.144Z,93.60
2022-10-02T03:00:00.023Z,93.60
2022-10-02T03:02:29.783Z,93.70
2022-10-02T03:04:58.154Z,93.70
2022-10-02T03:07:26.550Z,94.00
2022-10-02T03:10:06.715Z,94.40
2022-10-02T03:12:54.176Z,94.60
2022-10-02T03:15:30.258Z,94.70
2022-10-02T03:18:25.906Z,94.80
2022-10-02T03:21:06.661Z,94.90
2022-10-02T03:23:54.815Z,95.00
2022-10-02T03:26:32.034Z,95.00
2022-10-02T03:29:04.280Z,95.10
2022-10-02T03:31:35.989Z,95.20
2022-10-02T03:34:06.735Z,95.30
2022-10-02T03:36:35.434Z,95.40
2022-10-02T03:39:24.708Z,95.40
2022-10-02T03:41:54.070Z,95.50
2022-10-02T03:44:22.499Z,95.50
2022-10-02T03:46:50.862Z,95.50
2022-10-02T03:49:20.527Z,95.60
2022-10-02T03:51:48.790Z,95.60
2022-10-02T03:54:19.991Z,95.60
2022-10-02T03:56:56.805Z,95.70
2022-10-02T03:59:46.084Z,95.70
2022-10-02T04:02:31.979Z,95.80
2022-10-02T04:05:16.142Z,95.80
2022-10-02T04:07:52.499Z,95.90
2022-10-02T04:10:33.263Z,95.90
2022-10-02T04:13:11.072Z,95.90
2022-10-02T04:15:55.637Z,96.00
2022-10-02T04:18:28.117Z,96.00
2022-10-02T04:21:04.179Z,96.00
2022-10-02T04:23:37.779Z,96.00
2022-10-02T04:26:18.353Z,96.00
2022-10-02T04:28:55.459Z,96.10
2022-10-02T04:31:27.339Z,96.10
2022-10-02T04:34:02.122Z,96.10
2022-10-02T04:36:47.953Z,96.20
2022-10-02T04:39:46.648Z,96.20
2022-10-02T04:42:33.172Z,96.20
2022-10-02T04:45:23.394Z,96.20
2022-10-02T04:48:34.728Z,96.20
2022-10-02T04:51:19.895Z,96.30
2022-10-02T04:54:16.016Z,96.30
2022-10-02T04:57:16.568Z,96.30
2022-10-02T05:00:02.365Z,96.30
2022-10-02T05:03:06.714Z,96.40
2022-10-02T05:06:02.389Z,96.40
2022-10-02T05:08:52.060Z,96.40
2022-10-02T05:11:47.931Z,96.40
2022-10-02T05:15:09.412Z,96.40
2022-10-02T05:17:56.132Z,96.40
2022-10-02T05:20:50.260Z,96.40
2022-10-02T05:23:35.387Z,96.50
2022-10-02T05:26:36.214Z,96.50
2022-10-02T05:29:23.848Z,96.50
2022-10-02T05:32:09.948Z,96.50
2022-10-02T05:35:01.562Z,96.50
2022-10-02T05:37:47.208Z,96.60
2022-10-02T05:40:22.974Z,96.60
2022-10-02T05:43:02.540Z,96.60
2022-10-02T05:45:38.544Z,96.60
2022-10-02T05:48:15.513Z,96.60
2022-10-02T05:50:47.822Z,96.60
2022-10-02T05:53:28.330Z,96.60
2022-10-02T05:56:01.261Z,96.60
2022-10-02T05:58:37.122Z,96.60
2022-10-02T06:01:12.287Z,96.70
2022-10-02T06:03:48.358Z,96.70
2022-10-02T06:06:20.658Z,96.70
2022-10-02T06:08:54.899Z,96.70
2022-10-02T06:11:29.228Z,96.70
2022-10-02T06:14:04.776Z,96.70
2022-10-02T06:16:39.987Z,96.70
2022-10-02T06:19:15.981Z,96.70
2022-10-02T06:21:52.071Z,96.70
2022-10-02T06:24:26.324Z,96.70
2022-10-02T06:27:03.328Z,96.70
2022-10-02T06:29:41.517Z,96.80
2022-10-02T06:32:22.797Z,96.70
2022-10-02T06:34:51.638Z,96.80
2022-10-02T06:37:37.655Z,96.80
2022-10-02T06:40:38.730Z,96.70
2022-10-02T06:43:16.641Z,96.80
2022-10-02T06:45:58.835Z,96.80
2022-10-02T06:48:38.192Z,96.80
2022-10-02T06:51:16.323Z,96.80
2022-10-02T06:54:07.149Z,96.80
2022-10-02T06:56:49.061Z,96.80
2022-10-02T06:59:35.828Z,96.80
2022-10-02T07:02:24.326Z,96.80
2022-10-02T07:05:22.751Z,96.80
2022-10-02T07:08:03.009Z,96.80
2022-10-02T07:10:36.711Z,96.80
2022-10-02T07:13:23.961Z,96.80
2022-10-02T07:16:25.775Z,96.80
2022-10-02T07:19:43.362Z,96.80
2022-10-02T07:22:50.278Z,96.90
2022-10-02T07:25:41.578Z,96.90
2022-10-02T07:28:14.872Z,96.90
2022-10-02T07:30:57.155Z,96.90
2022-10-02T07:33:42.520Z,96.90
2022-10-02T07:36:18.864Z,96.90
2022-10-02T07:39:04.164Z,96.80
2022-10-02T07:41:56.797Z,96.90
2022-10-02T07:44:54.050Z,96.90
2022-10-02T07:47:46.855Z,96.90
2022-10-02T07:50:23.395Z,96.90
2022-10-02T07:53:06.393Z,96.90
2022-10-02T07:55:36.821Z,96.90
2022-10-02T07:58:11.281Z,96.90
2022-10-02T08:00:46.818Z,96.90
2022-10-02T08:03:20.354Z,96.90
2022-10-02T08:05:51.572Z,96.90
2022-10-02T08:08:27.308Z,96.90
2022-10-02T08:11:00.283Z,96.90
2022-10-02T08:13:35.021Z,96.90
2022-10-02T08:16:05.919Z,96.90
2022-10-02T08:18:38.095Z,96.90
2022-10-02T08:21:13.173Z,96.90
2022-10-02T08:23:48.417Z,96.90
2022-10-02T08:26:22.805Z,96.90
2022-10-02T08:29:00.207Z,96.90
2022-10-02T08:31:29.015Z,96.90
2022-10-02T08:33:58.578Z,96.90
2022-10-02T08:36:59.544Z,96.90
2022-10-02T08:40:08.151Z,96.90
2022-10-02T08:43:29.048Z,96.90
2022-10-02T08:46:58.585Z,97.00
2022-10-02T08:50:44.884Z,96.90
2022-10-02T08:53:53.274Z,97.00
2022-10-02T08:56:50.495Z,97.00
2022-10-02T09:00:09.588Z,97.00
2022-10-02T09:03:44.315Z,96.90
2022-10-02T09:06:53.700Z,96.90
2022-10-02T09:10:10.631Z,97.00
2022-10-02T09:13:15.226Z,96.90
2022-10-02T09:15:49.126Z,97.00
2022-10-02T09:18:42.950Z,97.00
2022-10-02T09:21:19.335Z,96.90
2022-10-02T09:24:32.344Z,97.00
2022-10-02T09:27:50.758Z,97.00
2022-10-02T09:31:03.849Z,97.00
2022-10-02T09:34:13.669Z,97.00
2022-10-02T09:37:31.696Z,97.00
2022-10-02T09:40:46.566Z,97.00
2022-10-02T09:44:03.618Z,97.00
2022-10-02T09:47:25.666Z,97.00
2022-10-02T09:50:57.571Z,97.00
2022-10-02T09:54:21.393Z,97.00
2022-10-02T09:57:37.722Z,96.90
2022-10-02T10:00:26.971Z,96.90
2022-10-02T10:03:26.982Z,97.00
2022-10-02T10:07:04.836Z,97.00
2022-10-02T10:10:20.355Z,97.00
2022-10-02T10:13:32.746Z,96.90
2022-10-02T10:17:13.510Z,97.00
2022-10-02T10:20:24.342Z,96.90
2022-10-02T10:23:26.565Z,96.90
2022-10-02T10:27:01.532Z,96.80
2022-10-02T10:30:19.988Z,96.80
2022-10-02T10:33:34.715Z,96.80
2022-10-02T10:37:00.893Z,96.80
2022-10-02T10:40:17.340Z,96.70
2022-10-02T10:43:24.851Z,96.70
2022-10-02T10:46:39.009Z,96.60
2022-10-02T10:49:28.325Z,96.60
2022-10-02T10:52:13.946Z,96.60
2022-10-02T10:55:09.147Z,96.60
2022-10-02T10:57:56.635Z,96.50
2022-10-02T11:00:27.641Z,96.50
2022-10-02T11:03:00.583Z,96.50
2022-10-02T11:06:12.451Z,96.60
2022-10-02T11:09:32.101Z,96.60
2022-10-02T11:12:29.805Z,96.50
2022-10-02T11:15:30.626Z,96.50
2022-10-02T11:18:19.883Z,96.50
2022-10-02T11:21:35.413Z,96.50
2022-10-02T11:24:45.026Z,96.40
2022-10-02T11:27:43.477Z,96.30
2022-10-02T11:30:23.474Z,96.30
2022-10-02T11:33:22.650Z,96.40
2022-10-02T11:36:06.671Z,96.30
2022-10-02T11:39:07.400Z,96.20
2022-10-02T11:42:11.704Z,96.10
2022-10-02T11:45:02.701Z,95.90
2022-10-02T11:48:01.126Z,95.40
2022-10-02T11:50:57.266Z,95.00
2022-10-02T11:53:39.340Z,94.70
2022-10-02T11:56:31.227Z,94.10
2022-10-02T11:59:29.740Z,93.10
2022-10-02T12:02:05.567Z,93.30
2022-10-02T12:04:43.708Z,93.30
2022-10-02T12:07:36.831Z,92.80
2022-10-02T12:10:27.303Z,92.70
2022-10-02T12:13:17.003Z,92.30
2022-10-02T12:15:59.237Z,92.30
2022-10-02T12:18:45.959Z,91.60
2022-10-02T12:21:48.710Z,91.40
2022-10-02T12:24:47.900Z,90.90
2022-10-02T12:27:36.813Z,91.20
2022-10-02T12:30:10.247Z,91.60
2022-10-02T12:32:58.045Z,90.70
2022-10-02T12:35:48.042Z,89.80
2022-10-02T12:38:35.036Z,90.30
2022-10-02T12:41:11.379Z,90.70
2022-10-02T12:44:19.534Z,89.10
2022-10-02T12:47:12.896Z,89.50
2022-10-02T12:49:56.009Z,88.90
2022-10-02T12:53:05.467Z,89.70
2022-10-02T12:56:01.480Z,89.30
2022-10-02T12:58:43.343Z,88.60
2022-10-02T13:02:16.467Z,89.50
2022-10-02T13:05:44.594Z,89.70
2022-10-02T13:08:26.786Z,90.10
2022-10-02T13:11:10.557Z,90.70
2022-10-02T13:14:15.633Z,89.80
2022-10-02T13:17:10.483Z,90.90
2022-10-02T13:19:56.796Z,91.30
2022-10-02T13:22:38.303Z,91.00
2022-10-02T13:25:34.505Z,90.80
2022-10-02T13:28:23.630Z,90.50
2022-10-02T13:31:03.408Z,91.30
2022-10-02T13:34:01.935Z,90.80
2022-10-02T13:36:48.420Z,91.00
2022-10-02T13:39:50.156Z,91.60
2022-10-02T13:42:38.158Z,91.20
2022-10-02T13:45:18.262Z,91.10
2022-10-02T13:47:58.949Z,91.00
2022-10-02T13:50:50.826Z,91.40
2022-10-02T13:54:00.799Z,90.50
2022-10-02T13:56:43.899Z,90.60
2022-10-02T13:59:25.263Z,90.20
2022-10-02T14:02:18.432Z,90.00
2022-10-02T14:04:59.164Z,89.90
2022-10-02T14:07:50.110Z,89.70
2022-10-02T14:10:37.866Z,89.60
2022-10-02T14:13:25.199Z,89.20
2022-10-02T14:16:11.511Z,89.60
2022-10-02T14:19:23.676Z,89.10
2022-10-02T14:22:08.205Z,88.40
2022-10-02T14:25:04.217Z,88.80
2022-10-02T14:28:28.509Z,88.60
2022-10-02T14:31:42.094Z,88.30
2022-10-02T14:34:44.417Z,88.00
2022-10-02T14:37:48.402Z,87.80
2022-10-02T14:40:19.809Z,87.90
2022-10-02T14:43:19.549Z,88.30
2022-10-02T14:46:06.981Z,87.60
2022-10-02T14:49:01.741Z,87.60
2022-10-02T14:51:59.627Z,88.10
2022-10-02T14:54:44.551Z,88.20
2022-10-02T14:57:36.492Z,88.10
2022-10-02T15:00:17.175Z,88.40
2022-10-02T15:03:34.215Z,88.30
2022-10-02T15:06:21.855Z,87.40
2022-10-02T15:08:57.503Z,87.10
2022-10-02T15:11:49.967Z,86.80
2022-10-02T15:14:24.216Z,87.40
2022-10-02T15:17:18.716Z,87.20
2022-10-02T15:19:50.957Z,87.20
2022-10-02T15:22:23.476Z,87.60
2022-10-02T15:24:58.378Z,87.60
2022-10-02T15:27:28.600Z,87.60
2022-10-02T15:30:15.311Z,87.60
2022-10-02T15:33:14.592Z,87.60
2022-10-02T15:36:08.432Z,88.00
2022-10-02T15:39:18.725Z,89.00
2022-10-02T15:41:50.897Z,89.00
2022-10-02T15:44:52.242Z,89.20
2022-10-02T15:47:56.501Z,89.40
2022-10-02T15:50:38.920Z,90.00
2022-10-02T15:53:33.724Z,88.40
2022-10-02T15:56:21.239Z,88.60
2022-10-02T15:59:07.869Z,89.00
2022-10-02T16:01:50.247Z,89.00
2022-10-02T16:04:28.912Z,89.20
2022-10-02T16:07:49.573Z,88.90
2022-10-02T16:10:25.757Z,89.50
2022-10-02T16:13:21.411Z,88.80
2022-10-02T16:15:53.433Z,88.50
2022-10-02T16:18:41.741Z,88.30
2022-10-02T16:21:46.345Z,87.80
2022-10-02T16:24:42.166Z,87.50
2022-10-02T16:27:46.741Z,87.70
2022-10-02T16:30:18.739Z,88.10
2022-10-02T16:33:11.621Z,87.70
2022-10-02T16:36:30.247Z,88.40
2022-10-02T16:39:15.769Z,87.80
2022-10-02T16:42:02.145Z,88.20
2022-10-02T16:44:58.234Z,88.10
2022-10-02T16:47:35.187Z,88.60
2022-10-02T16:50:15.404Z,88.10
2022-10-02T16:52:51.920Z,88.60
2022-10-02T16:55:28.668Z,89.00
2022-10-02T16:58:13.957Z,89.50
2022-10-02T17:00:56.400Z,89.60
2022-10-02T17:03:35.691Z,89.90
2022-10-02T17:06:12.831Z,90.10
2022-10-02T17:08:46.710Z,90.40
2022-10-02T17:11:22.724Z,90.70
2022-10-02T17:14:12.541Z,90.70
2022-10-02T17:16:49.090Z,90.80
2022-10-02T17:19:28.487Z,91.20
2022-10-02T17:22:03.561Z,91.00
2022-10-02T17:24:50.475Z,90.60
2022-10-02T17:27:30.439Z,90.70
2022-10-02T17:30:09.220Z,90.70
2022-10-02T17:32:50.331Z,90.60
2022-10-02T17:35:31.703Z,90.80
2022-10-02T17:38:17.480Z,91.10
2022-10-02T17:40:57.862Z,91.50
2022-10-02T17:43:33.374Z,91.50
2022-10-02T17:46:33.973Z,91.40
2022-10-02T17:49:09.092Z,91.20
2022-10-02T17:51:53.131Z,91.40
2022-10-02T17:55:00.621Z,91.60
2022-10-02T17:57:48.320Z,91.80
2022-10-02T18:00:23.006Z,91.80
2022-10-02T18:03:31.799Z,91.90
2022-10-02T18:06:22.521Z,91.80
2022-10-02T18:09:38.366Z,91.50
2022-10-02T18:12:27.301Z,91.80
2022-10-02T18:15:13.035Z,92.10
2022-10-02T18:18:11.552Z,91.90
2022-10-02T18:20:57.375Z,92.00
2022-10-02T18:23:52.887Z,91.90
2022-10-02T18:26:40.266Z,91.80
2022-10-02T18:29:32.563Z,91.80
2022-10-02T18:32:31.112Z,92.20
2022-10-02T18:35:20.846Z,91.90
2022-10-02T18:37:59.870Z,92.10
2022-10-02T18:40:31.908Z,92.00
2022-10-02T18:43:22.985Z,92.00
2022-10-02T18:46:05.157Z,91.80
2022-10-02T18:49:07.933Z,92.00
2022-10-02T18:52:30.530Z,92.10
2022-10-02T18:55:37.218Z,92.10
2022-10-02T18:58:24.220Z,92.30
2022-10-02T19:01:46.584Z,92.40
2022-10-02T19:04:52.554Z,92.40
2022-10-02T19:07:24.725Z,92.60
2022-10-02T19:10:28.939Z,92.30
2022-10-02T19:13:02.681Z,92.50
2022-10-02T19:15:34.796Z,92.40
2022-10-02T19:18:05.948Z,92.30
2022-10-02T19:20:54.269Z,92.20
2022-10-02T19:24:03.749Z,92.20
2022-10-02T19:26:36.050Z,92.20
2022-10-02T19:29:20.557Z,92.30
2022-10-02T19:31:49.084Z,92.50
2022-10-02T19:34:21.473Z,92.50
2022-10-02T19:36:54.650Z,92.30
2022-10-02T19:39:30.600Z,92.30
2022-10-02T19:42:03.118Z,92.40
2022-10-02T19:44:35.327Z,92.50
2022-10-02T19:47:16.834Z,92.50
2022-10-02T19:49:49.327Z,92.50
2022-10-02T19:52:42.079Z,92.40
2022-10-02T19:55:24.079Z,92.50
2022-10-02T19:57:58.414Z,92.60
2022-10-02T20:00:26.719Z,92.30
2022-10-02T20:02:58.145Z,92.60
2022-10-02T20:05:28.465Z,92.50
2022-10-02T20:08:06.655Z,92.50
2022-10-02T20:10:39.821Z,92.80
2022-10-02T20:13:18.445Z,92.90
2022-10-02T20:16:09.869Z,93.00
2022-10-02T20:18:38.583Z,92.90
2022-10-02T20:21:12.787Z,92.90
2022-10-02T20:23:49.304Z,92.90
2022-10-02T20:26:23.195Z,92.90
2022-10-02T20:28:57.508Z,93.10
2022-10-02T20:31:38.618Z,92.90
2022-10-02T20:34:15.364Z,93.00
2022-10-02T20:36:56.213Z,93.20
2022-10-02T20:39:34.867Z,92.80
2022-10-02T20:42:11.540Z,92.70
2022-10-02T20:44:40.465Z,92.50
2022-10-02T20:48:17.138Z,92.60
2022-10-02T20:50:56.251Z,92.60
2022-10-02T20:54:14.980Z,92.70
2022-10-02T20:57:20.888Z,92.60
2022-10-02T21:00:12.227Z,92.50
2022-10-02T21:03:00.205Z,92.80
2022-10-02T21:05:54.421Z,93.00
2022-10-02T21:08:58.374Z,93.10
2022-10-02T21:11:56.117Z,93.10
2022-10-02T21:15:24.089Z,93.30
2022-10-02T21:18:17.999Z,93.40
2022-10-02T21:21:10.763Z,93.50
2022-10-02T21:24:26.907Z,93.60
2022-10-02T21:27:27.768Z,93.30
2022-10-02T21:30:16.064Z,93.40
2022-10-02T21:33:05.954Z,93.30
2022-10-02T21:35:56.868Z,93.10
2022-10-02T21:38:55.749Z,93.20
2022-10-02T21:42:10.436Z,92.90
2022-10-02T21:45:35.933Z,92.90
2022-10-02T21:48:58.397Z,93.10
2022-10-02T21:52:06.206Z,93.10
2022-10-02T21:55:14.061Z,93.10
2022-10-02T21:58:16.727Z,93.30
2022-10-02T22:01:14.335Z,93.40
2022-10-02T22:04:29.349Z,93.40
2022-10-02T22:07:00.322Z,93.30
2022-10-02T22:09:48.372Z,93.30
2022-10-02T22:12:40.285Z,93.50
2022-10-02T22:15:20.292Z,93.50
2022-10-02T22:17:59.223Z,93.60
2022-10-02T22:21:23.674Z,93.60
2022-10-02T22:24:15.935Z,93.70
2022-10-02T22:27:04.684Z,93.60
2022-10-02T22:29:45.671Z,93.50
2022-10-02T22:32:55.852Z,93.50
2022-10-02T22:35:34.419Z,93.50
2022-10-02T22:38:15.351Z,93.30
2022-10-02T22:40:52.372Z,93.30
2022-10-02T22:43:28.550Z,93.30
2022-10-02T22:46:02.901Z,93.40
2022-10-02T22:48:39.910Z,93.30
2022-10-02T22:51:17.871Z,93.30
2022-10-02T22:53:51.132Z,93.40
2022-10-02T22:56:30.354Z,93.40
2022-10-02T22:59:07.879Z,93.40
2022-10-02T23:01:45.739Z,93.50
2022-10-02T23:04:28.964Z,93.60
2022-10-02T23:07:04.839Z,93.40
2022-10-02T23:09:43.440Z,93.50
2022-10-02T23:12:19.419Z,93.70
2022-10-02T23:15:06.720Z,93.60
2022-10-02T23:17:45.328Z,93.60
2022-10-02T23:20:21.280Z,93.70
2022-10-02T23:22:57.396Z,93.60
2022-10-02T23:25:32.536Z,93.60
2022-10-02T23:28:07.414Z,93.60
2022-10-02T23:30:43.771Z,93.60
2022-10-02T23:33:23.806Z,93.60
2022-10-02T23:36:00.259Z,93.60
2022-10-02T23:38:41.760Z,93.50
2022-10-02T23:41:35.791Z,93.40
2022-10-02T23:44:18.212Z,93.50
2022-10-02T23:47:06.508Z,93.60
2022-10-02T23:49:40.143Z,93.50
2022-10-02T23:52:48.450Z,93.50
2022-10-02T23:55:33.424Z,93.40
2022-10-02T23:58:44.835Z,93.50
